sensor_id;sensor_type;location;lat;lon;timestamp;temperature;humidity
65766;SHT31;52915;53.718;19.946;2023-08-20T00:01:03;21.66;81.96
65766;SHT31;52915;53.718;19.946;2023-08-20T00:06:25;21.56;82.32
65766;SHT31;52915;53.718;19.946;2023-08-20T00:11:30;21.56;82.31
65766;SHT31;52915;53.718;19.946;2023-08-20T00:16:34;21.53;82.40
65766;SHT31;52915;53.718;19.946;2023-08-20T00:21:42;21.44;82.50
65766;SHT31;52915;53.718;19.946;2023-08-20T00:26:48;21.35;82.71
65766;SHT31;52915;53.718;19.946;2023-08-20T00:31:52;21.35;82.61
65766;SHT31;52915;53.718;19.946;2023-08-20T00:36:58;21.28;82.83
65766;SHT31;52915;53.718;19.946;2023-08-20T00:42:03;21.20;83.09
65766;SHT31;52915;53.718;19.946;2023-08-20T00:47:07;21.19;82.94
65766;SHT31;52915;53.718;19.946;2023-08-20T00:52:13;21.09;83.17
65766;SHT31;52915;53.718;19.946;2023-08-20T00:57:24;21.09;83.11
65766;SHT31;52915;53.718;19.946;2023-08-20T01:02:30;21.08;83.08
65766;SHT31;52915;53.718;19.946;2023-08-20T01:07:57;20.95;83.34
65766;SHT31;52915;53.718;19.946;2023-08-20T01:13:20;20.92;83.31
65766;SHT31;52915;53.718;19.946;2023-08-20T01:18:26;20.84;83.54
65766;SHT31;52915;53.718;19.946;2023-08-20T01:28:38;20.72;84.08
65766;SHT31;52915;53.718;19.946;2023-08-20T01:33:44;20.67;84.14
65766;SHT31;52915;53.718;19.946;2023-08-20T01:38:49;20.65;84.15
65766;SHT31;52915;53.718;19.946;2023-08-20T01:43:55;20.57;84.43
65766;SHT31;52915;53.718;19.946;2023-08-20T01:48:59;20.53;84.50
65766;SHT31;52915;53.718;19.946;2023-08-20T01:54:04;20.57;84.29
65766;SHT31;52915;53.718;19.946;2023-08-20T01:59:10;20.61;84.09
65766;SHT31;52915;53.718;19.946;2023-08-20T02:04:14;20.57;84.11
65766;SHT31;52915;53.718;19.946;2023-08-20T02:09:20;20.47;84.37
65766;SHT31;52915;53.718;19.946;2023-08-20T02:14:24;20.52;84.23
65766;SHT31;52915;53.718;19.946;2023-08-20T02:19:30;20.58;84.02
65766;SHT31;52915;53.718;19.946;2023-08-20T02:24:35;20.61;83.78
65766;SHT31;52915;53.718;19.946;2023-08-20T02:29:40;20.60;83.68
65766;SHT31;52915;53.718;19.946;2023-08-20T02:34:48;20.49;83.80
65766;SHT31;52915;53.718;19.946;2023-08-20T02:39:54;20.48;83.85
65766;SHT31;52915;53.718;19.946;2023-08-20T02:44:59;20.44;83.93
65766;SHT31;52915;53.718;19.946;2023-08-20T02:50:04;20.34;84.38
65766;SHT31;52915;53.718;19.946;2023-08-20T02:55:09;20.34;84.40
65766;SHT31;52915;53.718;19.946;2023-08-20T03:00:13;20.40;84.18
65766;SHT31;52915;53.718;19.946;2023-08-20T03:05:19;20.40;84.21
65766;SHT31;52915;53.718;19.946;2023-08-20T03:10:23;20.36;84.07
65766;SHT31;52915;53.718;19.946;2023-08-20T03:15:28;20.31;84.07
65766;SHT31;52915;53.718;19.946;2023-08-20T03:20:34;20.33;83.82
65766;SHT31;52915;53.718;19.946;2023-08-20T03:25:40;20.30;83.73
65766;SHT31;52915;53.718;19.946;2023-08-20T03:30:45;20.31;83.58
65766;SHT31;52915;53.718;19.946;2023-08-20T03:35:50;20.23;83.56
65766;SHT31;52915;53.718;19.946;2023-08-20T03:40:54;20.09;83.88
65766;SHT31;52915;53.718;19.946;2023-08-20T03:46:00;19.99;84.22
65766;SHT31;52915;53.718;19.946;2023-08-20T03:51:06;20.00;84.33
65766;SHT31;52915;53.718;19.946;2023-08-20T03:56:10;19.96;84.67
65766;SHT31;52915;53.718;19.946;2023-08-20T04:01:15;20.05;84.61
65766;SHT31;52915;53.718;19.946;2023-08-20T04:06:19;20.17;84.31
65766;SHT31;52915;53.718;19.946;2023-08-20T04:11:25;20.23;84.21
65766;SHT31;52915;53.718;19.946;2023-08-20T04:16:30;20.27;84.19
65766;SHT31;52915;53.718;19.946;2023-08-20T04:21:34;20.22;84.58
65766;SHT31;52915;53.718;19.946;2023-08-20T04:26:39;20.18;84.89
65766;SHT31;52915;53.718;19.946;2023-08-20T04:31:44;20.24;84.96
65766;SHT31;52915;53.718;19.946;2023-08-20T04:36:48;20.33;85.00
65766;SHT31;52915;53.718;19.946;2023-08-20T04:41:53;20.43;84.94
65766;SHT31;52915;53.718;19.946;2023-08-20T04:47:01;20.56;84.78
65766;SHT31;52915;53.718;19.946;2023-08-20T04:52:05;20.68;84.68
65766;SHT31;52915;53.718;19.946;2023-08-20T04:57:10;20.84;84.50
65766;SHT31;52915;53.718;19.946;2023-08-20T05:02:14;21.00;84.14
65766;SHT31;52915;53.718;19.946;2023-08-20T05:07:19;21.25;83.83
65766;SHT31;52915;53.718;19.946;2023-08-20T05:12:24;21.57;83.36
65766;SHT31;52915;53.718;19.946;2023-08-20T05:17:29;21.83;82.78
65766;SHT31;52915;53.718;19.946;2023-08-20T05:22:34;22.08;82.28
65766;SHT31;52915;53.718;19.946;2023-08-20T05:27:39;22.42;81.50
65766;SHT31;52915;53.718;19.946;2023-08-20T05:32:43;22.68;80.96
65766;SHT31;52915;53.718;19.946;2023-08-20T05:37:48;22.89;80.30
65766;SHT31;52915;53.718;19.946;2023-08-20T05:42:53;23.03;79.89
65766;SHT31;52915;53.718;19.946;2023-08-20T05:47:58;23.29;79.61
65766;SHT31;52915;53.718;19.946;2023-08-20T05:53:03;23.59;79.24
65766;SHT31;52915;53.718;19.946;2023-08-20T05:58:07;23.92;78.72
65766;SHT31;52915;53.718;19.946;2023-08-20T06:03:12;24.21;78.18
65766;SHT31;52915;53.718;19.946;2023-08-20T06:08:17;24.44;77.54
65766;SHT31;52915;53.718;19.946;2023-08-20T06:13:22;24.64;77.04
65766;SHT31;52915;53.718;19.946;2023-08-20T06:18:26;24.77;76.70
65766;SHT31;52915;53.718;19.946;2023-08-20T06:23:31;25.05;76.19
65766;SHT31;52915;53.718;19.946;2023-08-20T06:28:47;25.37;75.75
65766;SHT31;52915;53.718;19.946;2023-08-20T06:33:51;25.64;74.86
65766;SHT31;52915;53.718;19.946;2023-08-20T06:38:56;25.81;73.91
65766;SHT31;52915;53.718;19.946;2023-08-20T06:44:01;26.02;73.46
65766;SHT31;52915;53.718;19.946;2023-08-20T06:49:07;26.28;72.69
65766;SHT31;52915;53.718;19.946;2023-08-20T06:54:11;26.54;72.15
65766;SHT31;52915;53.718;19.946;2023-08-20T06:59:16;26.85;71.59
65766;SHT31;52915;53.718;19.946;2023-08-20T07:04:21;27.19;70.99
65766;SHT31;52915;53.718;19.946;2023-08-20T07:09:25;27.47;70.04
65766;SHT31;52915;53.718;19.946;2023-08-20T07:14:30;27.57;69.72
65766;SHT31;52915;53.718;19.946;2023-08-20T07:19:36;27.95;68.50
65766;SHT31;52915;53.718;19.946;2023-08-20T07:24:41;27.98;68.01
65766;SHT31;52915;53.718;19.946;2023-08-20T07:29:46;28.48;67.67
65766;SHT31;52915;53.718;19.946;2023-08-20T07:34:51;28.57;66.32
65766;SHT31;52915;53.718;19.946;2023-08-20T07:39:56;28.66;65.96
65766;SHT31;52915;53.718;19.946;2023-08-20T07:45:02;28.91;65.04
65766;SHT31;52915;53.718;19.946;2023-08-20T07:50:06;29.31;65.25
65766;SHT31;52915;53.718;19.946;2023-08-20T07:55:12;29.88;64.38
65766;SHT31;52915;53.718;19.946;2023-08-20T08:00:17;29.97;62.78
65766;SHT31;52915;53.718;19.946;2023-08-20T08:05:22;30.30;62.50
65766;SHT31;52915;53.718;19.946;2023-08-20T08:10:26;30.68;60.81
65766;SHT31;52915;53.718;19.946;2023-08-20T08:15:31;30.85;59.01
65766;SHT31;52915;53.718;19.946;2023-08-20T08:20:37;30.95;58.60
65766;SHT31;52915;53.718;19.946;2023-08-20T08:25:41;30.97;58.51
65766;SHT31;52915;53.718;19.946;2023-08-20T08:30:46;31.23;57.68
65766;SHT31;52915;53.718;19.946;2023-08-20T08:35:50;31.38;57.48
65766;SHT31;52915;53.718;19.946;2023-08-20T08:40:55;31.67;56.38
65766;SHT31;52915;53.718;19.946;2023-08-20T08:46:00;32.00;55.92
65766;SHT31;52915;53.718;19.946;2023-08-20T08:51:13;32.32;54.67
65766;SHT31;52915;53.718;19.946;2023-08-20T08:56:18;32.65;52.72
65766;SHT31;52915;53.718;19.946;2023-08-20T09:01:23;32.55;53.58
65766;SHT31;52915;53.718;19.946;2023-08-20T09:06:29;32.75;52.75
65766;SHT31;52915;53.718;19.946;2023-08-20T09:11:50;32.74;50.88
65766;SHT31;52915;53.718;19.946;2023-08-20T09:16:58;32.45;50.44
65766;SHT31;52915;53.718;19.946;2023-08-20T09:22:05;32.92;51.31
65766;SHT31;52915;53.718;19.946;2023-08-20T09:27:09;33.65;50.40
65766;SHT31;52915;53.718;19.946;2023-08-20T09:32:16;34.05;49.14
65766;SHT31;52915;53.718;19.946;2023-08-20T09:37:22;33.85;48.12
65766;SHT31;52915;53.718;19.946;2023-08-20T09:42:28;33.99;48.51
65766;SHT31;52915;53.718;19.946;2023-08-20T09:47:36;34.33;48.43
65766;SHT31;52915;53.718;19.946;2023-08-20T09:52:57;34.28;47.56
65766;SHT31;52915;53.718;19.946;2023-08-20T09:58:10;34.23;47.20
65766;SHT31;52915;53.718;19.946;2023-08-20T10:03:15;34.60;47.14
65766;SHT31;52915;53.718;19.946;2023-08-20T10:08:24;34.81;46.63
65766;SHT31;52915;53.718;19.946;2023-08-20T10:13:30;34.20;47.24
65766;SHT31;52915;53.718;19.946;2023-08-20T10:18:36;33.75;48.94
65766;SHT31;52915;53.718;19.946;2023-08-20T10:23:41;34.26;49.13
65766;SHT31;52915;53.718;19.946;2023-08-20T10:29:02;34.93;47.56
65766;SHT31;52915;53.718;19.946;2023-08-20T10:34:44;35.19;46.53
65766;SHT31;52915;53.718;19.946;2023-08-20T10:39:58;35.04;46.58
65766;SHT31;52915;53.718;19.946;2023-08-20T10:45:06;34.69;45.51
65766;SHT31;52915;53.718;19.946;2023-08-20T10:50:15;34.13;45.22
65766;SHT31;52915;53.718;19.946;2023-08-20T10:55:22;33.73;45.97
65766;SHT31;52915;53.718;19.946;2023-08-20T11:00:27;33.63;46.64
65766;SHT31;52915;53.718;19.946;2023-08-20T11:05:35;33.65;47.20
65766;SHT31;52915;53.718;19.946;2023-08-20T11:10:40;33.88;46.99
65766;SHT31;52915;53.718;19.946;2023-08-20T11:15:45;34.22;46.60
65766;SHT31;52915;53.718;19.946;2023-08-20T11:20:50;34.36;45.71
65766;SHT31;52915;53.718;19.946;2023-08-20T11:25:55;34.70;45.03
65766;SHT31;52915;53.718;19.946;2023-08-20T11:31:00;34.71;45.37
65766;SHT31;52915;53.718;19.946;2023-08-20T11:36:06;34.63;44.83
65766;SHT31;52915;53.718;19.946;2023-08-20T11:41:11;34.35;43.07
65766;SHT31;52915;53.718;19.946;2023-08-20T11:46:17;33.79;44.29
65766;SHT31;52915;53.718;19.946;2023-08-20T11:51:25;33.73;44.98
65766;SHT31;52915;53.718;19.946;2023-08-20T11:56:30;33.76;45.40
65766;SHT31;52915;53.718;19.946;2023-08-20T12:01:42;34.02;44.60
65766;SHT31;52915;53.718;19.946;2023-08-20T12:12:34;34.40;44.01
65766;SHT31;52915;53.718;19.946;2023-08-20T12:17:38;34.50;44.53
65766;SHT31;52915;53.718;19.946;2023-08-20T12:22:43;34.65;43.41
65766;SHT31;52915;53.718;19.946;2023-08-20T12:27:49;34.81;43.48
65766;SHT31;52915;53.718;19.946;2023-08-20T12:32:54;34.75;43.40
65766;SHT31;52915;53.718;19.946;2023-08-20T12:37:59;34.41;44.24
65766;SHT31;52915;53.718;19.946;2023-08-20T12:43:05;34.32;43.80
65766;SHT31;52915;53.718;19.946;2023-08-20T12:48:10;34.34;44.13
65766;SHT31;52915;53.718;19.946;2023-08-20T12:53:14;34.30;43.81
65766;SHT31;52915;53.718;19.946;2023-08-20T12:58:19;34.64;45.10
65766;SHT31;52915;53.718;19.946;2023-08-20T13:03:24;35.21;44.63
65766;SHT31;52915;53.718;19.946;2023-08-20T13:08:29;35.77;43.53
65766;SHT31;52915;53.718;19.946;2023-08-20T13:13:34;36.12;42.63
65766;SHT31;52915;53.718;19.946;2023-08-20T13:18:39;36.26;42.46
65766;SHT31;52915;53.718;19.946;2023-08-20T13:23:44;36.06;42.37
65766;SHT31;52915;53.718;19.946;2023-08-20T13:28:49;36.26;41.06
65766;SHT31;52915;53.718;19.946;2023-08-20T13:33:53;36.12;40.17
65766;SHT31;52915;53.718;19.946;2023-08-20T13:38:58;36.07;40.54
65766;SHT31;52915;53.718;19.946;2023-08-20T13:44:03;36.19;40.41
65766;SHT31;52915;53.718;19.946;2023-08-20T13:49:08;36.04;40.76
65766;SHT31;52915;53.718;19.946;2023-08-20T13:54:13;35.70;41.87
65766;SHT31;52915;53.718;19.946;2023-08-20T13:59:17;35.30;43.53
65766;SHT31;52915;53.718;19.946;2023-08-20T14:04:22;34.88;44.63
65766;SHT31;52915;53.718;19.946;2023-08-20T14:09:27;34.44;45.51
65766;SHT31;52915;53.718;19.946;2023-08-20T14:14:32;34.12;46.15
65766;SHT31;52915;53.718;19.946;2023-08-20T14:19:36;33.97;46.67
65766;SHT31;52915;53.718;19.946;2023-08-20T14:24:41;34.10;46.82
65766;SHT31;52915;53.718;19.946;2023-08-20T14:29:45;34.44;46.25
65766;SHT31;52915;53.718;19.946;2023-08-20T14:34:50;34.25;46.54
65766;SHT31;52915;53.718;19.946;2023-08-20T14:39:55;33.86;47.53
65766;SHT31;52915;53.718;19.946;2023-08-20T14:45:01;33.74;47.24
65766;SHT31;52915;53.718;19.946;2023-08-20T14:50:07;33.68;47.13
65766;SHT31;52915;53.718;19.946;2023-08-20T14:55:12;33.75;46.49
65766;SHT31;52915;53.718;19.946;2023-08-20T15:00:17;33.91;45.95
65766;SHT31;52915;53.718;19.946;2023-08-20T15:05:21;33.82;47.74
65766;SHT31;52915;53.718;19.946;2023-08-20T15:10:26;33.82;48.17
65766;SHT31;52915;53.718;19.946;2023-08-20T15:15:31;34.55;47.40
65766;SHT31;52915;53.718;19.946;2023-08-20T15:20:36;35.16;46.38
65766;SHT31;52915;53.718;19.946;2023-08-20T15:25:40;35.72;46.26
65766;SHT31;52915;53.718;19.946;2023-08-20T15:30:45;36.03;46.58
65766;SHT31;52915;53.718;19.946;2023-08-20T15:35:49;36.27;46.42
65766;SHT31;52915;53.718;19.946;2023-08-20T15:40:54;36.50;45.78
65766;SHT31;52915;53.718;19.946;2023-08-20T15:45:59;36.75;45.16
65766;SHT31;52915;53.718;19.946;2023-08-20T15:51:03;36.99;44.95
65766;SHT31;52915;53.718;19.946;2023-08-20T15:56:08;36.93;44.80
65766;SHT31;52915;53.718;19.946;2023-08-20T16:01:12;36.67;44.73
65766;SHT31;52915;53.718;19.946;2023-08-20T16:06:17;36.55;44.56
65766;SHT31;52915;53.718;19.946;2023-08-20T16:11:22;36.35;44.85
65766;SHT31;52915;53.718;19.946;2023-08-20T16:16:26;35.97;45.25
65766;SHT31;52915;53.718;19.946;2023-08-20T16:21:31;35.53;45.68
65766;SHT31;52915;53.718;19.946;2023-08-20T16:26:36;35.26;46.31
65766;SHT31;52915;53.718;19.946;2023-08-20T16:31:41;34.92;46.99
65766;SHT31;52915;53.718;19.946;2023-08-20T16:36:45;34.47;47.83
65766;SHT31;52915;53.718;19.946;2023-08-20T16:41:50;34.15;48.74
65766;SHT31;52915;53.718;19.946;2023-08-20T16:46:54;33.77;49.58
65766;SHT31;52915;53.718;19.946;2023-08-20T16:51:59;33.42;50.19
65766;SHT31;52915;53.718;19.946;2023-08-20T16:57:03;33.01;50.85
65766;SHT31;52915;53.718;19.946;2023-08-20T17:02:08;32.61;51.67
65766;SHT31;52915;53.718;19.946;2023-08-20T17:07:12;32.10;52.67
65766;SHT31;52915;53.718;19.946;2023-08-20T17:12:17;31.76;53.28
65766;SHT31;52915;53.718;19.946;2023-08-20T17:17:21;31.37;54.16
65766;SHT31;52915;53.718;19.946;2023-08-20T17:22:32;30.99;55.19
65766;SHT31;52915;53.718;19.946;2023-08-20T17:27:38;30.57;56.03
65766;SHT31;52915;53.718;19.946;2023-08-20T17:32:42;30.14;56.85
65766;SHT31;52915;53.718;19.946;2023-08-20T17:37:47;29.71;57.53
65766;SHT31;52915;53.718;19.946;2023-08-20T17:42:52;29.29;58.12
65766;SHT31;52915;53.718;19.946;2023-08-20T17:47:56;28.96;58.61
65766;SHT31;52915;53.718;19.946;2023-08-20T17:53:02;28.70;59.28
65766;SHT31;52915;53.718;19.946;2023-08-20T17:58:08;28.41;60.12
65766;SHT31;52915;53.718;19.946;2023-08-20T18:03:12;28.15;60.78
65766;SHT31;52915;53.718;19.946;2023-08-20T18:08:18;27.93;61.26
65766;SHT31;52915;53.718;19.946;2023-08-20T18:13:22;27.71;61.67
65766;SHT31;52915;53.718;19.946;2023-08-20T18:18:26;27.50;61.92
65766;SHT31;52915;53.718;19.946;2023-08-20T18:23:32;27.37;61.99
65766;SHT31;52915;53.718;19.946;2023-08-20T18:28:36;27.29;62.11
65766;SHT31;52915;53.718;19.946;2023-08-20T18:33:45;27.09;62.53
65766;SHT31;52915;53.718;19.946;2023-08-20T18:38:49;26.88;62.98
65766;SHT31;52915;53.718;19.946;2023-08-20T18:43:54;26.78;63.33
65766;SHT31;52915;53.718;19.946;2023-08-20T18:48:58;26.72;63.72
65766;SHT31;52915;53.718;19.946;2023-08-20T18:54:03;26.61;64.26
65766;SHT31;52915;53.718;19.946;2023-08-20T18:59:07;26.41;64.88
65766;SHT31;52915;53.718;19.946;2023-08-20T19:04:12;26.32;65.10
65766;SHT31;52915;53.718;19.946;2023-08-20T19:09:17;26.20;65.64
65766;SHT31;52915;53.718;19.946;2023-08-20T19:14:22;26.07;66.39
65766;SHT31;52915;53.718;19.946;2023-08-20T19:19:28;25.92;67.05
65766;SHT31;52915;53.718;19.946;2023-08-20T19:24:33;25.79;67.64
65766;SHT31;52915;53.718;19.946;2023-08-20T19:29:38;25.72;67.94
65766;SHT31;52915;53.718;19.946;2023-08-20T19:34:43;25.66;68.12
65766;SHT31;52915;53.718;19.946;2023-08-20T19:39:48;25.66;68.04
65766;SHT31;52915;53.718;19.946;2023-08-20T19:44:52;25.63;68.14
65766;SHT31;52915;53.718;19.946;2023-08-20T19:49:57;25.54;68.51
65766;SHT31;52915;53.718;19.946;2023-08-20T19:55:02;25.35;69.12
65766;SHT31;52915;53.718;19.946;2023-08-20T20:00:08;25.18;69.50
65766;SHT31;52915;53.718;19.946;2023-08-20T20:05:20;25.01;69.90
65766;SHT31;52915;53.718;19.946;2023-08-20T20:10:26;24.81;70.58
65766;SHT31;52915;53.718;19.946;2023-08-20T20:15:31;24.60;71.26
65766;SHT31;52915;53.718;19.946;2023-08-20T20:20:36;24.47;71.68
65766;SHT31;52915;53.718;19.946;2023-08-20T20:25:41;24.33;72.08
65766;SHT31;52915;53.718;19.946;2023-08-20T20:30:46;24.22;72.35
65766;SHT31;52915;53.718;19.946;2023-08-20T20:35:53;24.13;72.50
65766;SHT31;52915;53.718;19.946;2023-08-20T20:40:58;24.01;72.75
65766;SHT31;52915;53.718;19.946;2023-08-20T20:46:03;23.89;73.11
65766;SHT31;52915;53.718;19.946;2023-08-20T20:51:08;23.76;73.47
65766;SHT31;52915;53.718;19.946;2023-08-20T20:56:13;23.60;73.86
65766;SHT31;52915;53.718;19.946;2023-08-20T21:01:18;23.49;73.93
65766;SHT31;52915;53.718;19.946;2023-08-20T21:06:24;23.42;73.75
65766;SHT31;52915;53.718;19.946;2023-08-20T21:11:29;23.27;73.93
65766;SHT31;52915;53.718;19.946;2023-08-20T21:16:33;23.15;74.00
65766;SHT31;52915;53.718;19.946;2023-08-20T21:21:39;23.08;73.86
65766;SHT31;52915;53.718;19.946;2023-08-20T21:26:44;23.00;73.93
65766;SHT31;52915;53.718;19.946;2023-08-20T21:31:49;22.91;74.08
65766;SHT31;52915;53.718;19.946;2023-08-20T21:36:54;22.81;74.34
65766;SHT31;52915;53.718;19.946;2023-08-20T21:41:58;22.65;74.70
65766;SHT31;52915;53.718;19.946;2023-08-20T21:47:18;22.54;74.84
65766;SHT31;52915;53.718;19.946;2023-08-20T21:52:25;22.46;74.95
65766;SHT31;52915;53.718;19.946;2023-08-20T21:57:30;22.34;75.19
65766;SHT31;52915;53.718;19.946;2023-08-20T22:02:34;22.26;75.36
65766;SHT31;52915;53.718;19.946;2023-08-20T22:07:41;22.15;75.64
65766;SHT31;52915;53.718;19.946;2023-08-20T22:12:48;22.01;76.00
65766;SHT31;52915;53.718;19.946;2023-08-20T22:17:54;21.90;76.36
65766;SHT31;52915;53.718;19.946;2023-08-20T22:22:58;21.80;76.70
65766;SHT31;52915;53.718;19.946;2023-08-20T22:28:04;21.67;77.11
65766;SHT31;52915;53.718;19.946;2023-08-20T22:33:08;21.53;77.50
65766;SHT31;52915;53.718;19.946;2023-08-20T22:38:14;21.53;77.54
65766;SHT31;52915;53.718;19.946;2023-08-20T22:43:18;21.54;77.54
65766;SHT31;52915;53.718;19.946;2023-08-20T22:48:23;21.52;77.58
65766;SHT31;52915;53.718;19.946;2023-08-20T22:53:28;21.45;77.64
65766;SHT31;52915;53.718;19.946;2023-08-20T22:58:34;21.36;77.85
65766;SHT31;52915;53.718;19.946;2023-08-20T23:03:39;21.36;77.86
65766;SHT31;52915;53.718;19.946;2023-08-20T23:08:43;21.36;77.96
65766;SHT31;52915;53.718;19.946;2023-08-20T23:13:49;21.36;77.99
65766;SHT31;52915;53.718;19.946;2023-08-20T23:18:55;21.32;78.18
65766;SHT31;52915;53.718;19.946;2023-08-20T23:24:00;21.29;78.29
65766;SHT31;52915;53.718;19.946;2023-08-20T23:29:04;21.25;78.36
65766;SHT31;52915;53.718;19.946;2023-08-20T23:34:09;21.22;78.43
65766;SHT31;52915;53.718;19.946;2023-08-20T23:39:14;21.18;78.68
65766;SHT31;52915;53.718;19.946;2023-08-20T23:44:19;21.20;78.74
65766;SHT31;52915;53.718;19.946;2023-08-20T23:49:23;21.25;78.70
65766;SHT31;52915;53.718;19.946;2023-08-20T23:54:28;21.32;78.77
65766;SHT31;52915;53.718;19.946;2023-08-20T23:59:33;21.35;78.75
